createdAt,value
2019-02-28T00:01:32.427Z,99993.13
2019-02-28T00:04:05.942Z,99988.35
2019-02-28T00:06:38.962Z,99990.81
2019-02-28T00:09:12.032Z,99992.02
2019-02-28T00:11:45.695Z,99985.78
2019-02-28T00:14:19.253Z,99985.13
2019-02-28T00:16:52.971Z,99984.95
2019-02-28T00:19:25.933Z,99983.97
2019-02-28T00:21:58.928Z,99985.14
2019-02-28T00:24:32.755Z,99981.78
2019-02-28T00:27:06.176Z,99980.98
2019-02-28T00:29:39.128Z,99973.88
2019-02-28T00:32:12.918Z,99970.72
2019-02-28T00:34:46.666Z,99967.55
2019-02-28T00:37:19.290Z,99969.80
2019-02-28T00:39:52.826Z,99963.64
2019-02-28T00:42:26.172Z,99958.88
2019-02-28T00:45:02.145Z,99958.78
2019-02-28T00:47:34.715Z,99960.47
2019-02-28T00:50:08.271Z,99950.66
2019-02-28T00:52:41.700Z,99949.58
2019-02-28T00:55:15.529Z,99944.09
2019-02-28T00:57:48.128Z,99946.70
2019-02-28T01:00:21.561Z,99933.28
2019-02-28T01:02:54.923Z,99923.81
2019-02-28T01:05:27.257Z,99918.39
2019-02-28T01:07:59.872Z,99930.22
2019-02-28T01:10:38.663Z,99924.45
2019-02-28T01:13:08.904Z,99926.02
2019-02-28T01:15:45.047Z,99930.73
2019-02-28T01:18:16.426Z,99930.38
2019-02-28T01:20:50.722Z,99926.00
2019-02-28T01:23:23.434Z,99929.82
2019-02-28T01:25:56.749Z,99923.61
2019-02-28T01:28:30.196Z,99922.26
2019-02-28T01:31:03.110Z,99917.80
2019-02-28T01:33:36.086Z,99912.55
2019-02-28T01:36:12.267Z,99920.10
2019-02-28T01:38:44.716Z,99909.76
2019-02-28T01:41:18.645Z,99911.91
2019-02-28T01:43:51.520Z,99900.98
2019-02-28T01:46:24.406Z,99890.94
2019-02-28T01:48:58.242Z,99892.88
2019-02-28T01:51:35.627Z,99886.33
2019-02-28T01:54:06.807Z,99884.28
2019-02-28T01:56:39.834Z,99888.34
2019-02-28T01:59:12.732Z,99882.13
2019-02-28T02:01:46.129Z,99885.14
2019-02-28T02:04:19.403Z,99879.63
2019-02-28T02:06:52.497Z,99876.72
2019-02-28T02:09:25.496Z,99878.28
2019-02-28T02:11:59.169Z,99872.22
2019-02-28T02:14:31.823Z,99867.53
2019-02-28T02:17:05.899Z,99872.84
2019-02-28T02:19:39.820Z,99870.58
2019-02-28T02:22:13.091Z,99868.42
2019-02-28T02:24:46.526Z,99865.41
2019-02-28T02:27:20.383Z,99863.26
2019-02-28T02:29:53.729Z,99857.20
2019-02-28T02:32:27.212Z,99862.37
2019-02-28T02:35:06.060Z,99864.14
2019-02-28T02:37:36.058Z,99864.70
2019-02-28T02:40:09.868Z,99856.03
2019-02-28T02:42:47.225Z,99862.09
2019-02-28T02:45:18.186Z,99860.85
2019-02-28T02:47:51.434Z,99853.42
2019-02-28T02:50:24.259Z,99849.83
2019-02-28T02:52:57.137Z,99846.13
2019-02-28T02:55:30.433Z,99847.92
2019-02-28T02:58:03.486Z,99843.87
2019-02-28T03:00:36.697Z,99842.61
2019-02-28T03:03:10.250Z,99838.66
2019-02-28T03:05:43.837Z,99842.72
2019-02-28T03:08:17.666Z,99842.72
2019-02-28T03:10:52.694Z,99844.62
2019-02-28T03:13:25.763Z,99837.35
2019-02-28T03:15:59.493Z,99831.70
2019-02-28T03:18:33.001Z,99828.10
2019-02-28T03:21:06.369Z,99824.28
2019-02-28T03:23:40.470Z,99818.78
2019-02-28T03:26:13.596Z,99812.60
2019-02-28T03:28:46.641Z,99811.24
2019-02-28T03:31:19.735Z,99803.67
2019-02-28T03:33:53.445Z,99804.25
2019-02-28T03:36:26.621Z,99794.11
2019-02-28T03:39:00.009Z,99793.66
2019-02-28T03:41:33.317Z,99787.92
2019-02-28T03:44:06.309Z,99783.44
2019-02-28T03:46:39.237Z,99779.48
2019-02-28T03:49:12.912Z,99767.22
2019-02-28T03:51:45.903Z,99769.38
2019-02-28T03:54:19.178Z,99771.62
2019-02-28T03:56:53.380Z,99766.67
2019-02-28T03:59:26.893Z,99776.34
2019-02-28T04:01:59.892Z,99774.86
2019-02-28T04:04:33.174Z,99778.02
2019-02-28T04:07:07.209Z,99780.40
2019-02-28T04:09:44.264Z,99782.19
2019-02-28T04:12:16.377Z,99779.01
2019-02-28T04:14:49.304Z,99774.75
2019-02-28T04:17:26.012Z,99773.63
2019-02-28T04:20:00.145Z,99775.22
2019-02-28T04:22:33.230Z,99766.17
2019-02-28T04:25:06.195Z,99770.31
2019-02-28T04:27:41.578Z,99763.91
2019-02-28T04:30:15.048Z,99762.67
2019-02-28T04:32:48.056Z,99759.38
2019-02-28T04:35:24.334Z,99763.22
2019-02-28T04:37:54.853Z,99765.36
2019-02-28T04:40:27.721Z,99761.31
2019-02-28T04:43:01.182Z,99750.84
2019-02-28T04:45:34.071Z,99747.44
2019-02-28T04:48:07.189Z,99743.90
2019-02-28T04:50:40.155Z,99736.63
2019-02-28T04:53:13.329Z,99744.08
2019-02-28T04:55:45.898Z,99742.87
2019-02-28T04:58:18.298Z,99745.64
2019-02-28T05:00:52.101Z,99741.58
2019-02-28T05:03:28.000Z,99746.29
2019-02-28T05:05:59.619Z,99744.58
2019-02-28T05:08:32.665Z,99735.94
2019-02-28T05:11:05.322Z,99731.44
2019-02-28T05:13:41.056Z,99735.28
2019-02-28T05:16:13.917Z,99723.73
2019-02-28T05:18:46.490Z,99728.55
2019-02-28T05:21:20.287Z,99730.14
2019-02-28T05:23:53.296Z,99727.00
2019-02-28T05:26:26.963Z,99723.73
2019-02-28T05:29:00.742Z,99722.77
2019-02-28T05:31:33.603Z,99731.22
2019-02-28T05:34:07.261Z,99729.88
2019-02-28T05:36:40.690Z,99732.93
2019-02-28T05:39:14.197Z,99741.33
2019-02-28T05:41:49.356Z,99741.78
2019-02-28T05:44:22.625Z,99747.77
2019-02-28T05:46:58.109Z,99737.74
2019-02-28T05:49:30.449Z,99743.16
2019-02-28T05:52:04.079Z,99745.25
2019-02-28T05:54:37.124Z,99749.54
2019-02-28T05:57:09.750Z,99745.62
2019-02-28T05:59:43.403Z,99736.61
2019-02-28T06:02:18.970Z,99732.59
2019-02-28T06:04:51.972Z,99730.14
2019-02-28T06:07:25.991Z,99726.09
2019-02-28T06:09:59.962Z,99728.11
2019-02-28T06:12:34.968Z,99730.25
2019-02-28T06:15:08.707Z,99737.47
2019-02-28T06:17:42.032Z,99748.84
2019-02-28T06:20:16.937Z,99753.64
2019-02-28T06:22:50.442Z,99752.38
2019-02-28T06:25:25.552Z,99752.65
2019-02-28T06:27:58.796Z,99755.20
2019-02-28T06:30:32.477Z,99755.34
2019-02-28T06:33:06.112Z,99764.78
2019-02-28T06:35:39.093Z,99760.93
2019-02-28T06:38:12.448Z,99757.01
2019-02-28T06:40:45.513Z,99761.91
2019-02-28T06:43:19.597Z,99765.37
2019-02-28T06:45:53.679Z,99763.36
2019-02-28T06:48:26.807Z,99764.00
2019-02-28T06:50:59.870Z,99770.53
2019-02-28T06:53:36.355Z,99773.41
2019-02-28T06:56:08.991Z,99774.53
2019-02-28T06:58:42.279Z,99771.72
2019-02-28T07:01:16.265Z,99773.21
2019-02-28T07:03:53.513Z,99766.36
2019-02-28T07:06:24.761Z,99769.54
2019-02-28T07:09:02.030Z,99774.52
2019-02-28T07:11:33.585Z,99774.86
2019-02-28T07:14:06.996Z,99776.00
2019-02-28T07:16:40.483Z,99773.17
2019-02-28T07:19:14.213Z,99766.44
2019-02-28T07:21:47.687Z,99765.76
2019-02-28T07:24:21.176Z,99766.89
2019-02-28T07:26:54.686Z,99768.46
2019-02-28T07:29:28.013Z,99770.24
2019-02-28T07:32:01.469Z,99773.97
2019-02-28T07:34:34.160Z,99769.58
2019-02-28T07:37:07.680Z,99766.67
2019-02-28T07:39:41.448Z,99764.28
2019-02-28T07:42:16.613Z,99757.87
2019-02-28T07:44:49.751Z,99754.86
2019-02-28T07:47:25.350Z,99757.66
2019-02-28T07:49:58.155Z,99755.52
2019-02-28T07:52:33.499Z,99758.66
2019-02-28T07:55:07.502Z,99762.93
2019-02-28T07:57:41.387Z,99772.73
2019-02-28T08:00:18.236Z,99767.73
2019-02-28T08:02:51.254Z,99765.27
2019-02-28T08:05:29.730Z,99759.70
2019-02-28T08:07:58.442Z,99755.48
2019-02-28T08:10:31.117Z,99756.20
2019-02-28T08:13:04.184Z,99746.30
2019-02-28T08:15:37.008Z,99749.37
2019-02-28T08:18:10.007Z,99740.70
2019-02-28T08:20:43.589Z,99743.17
2019-02-28T08:23:16.699Z,99734.50
2019-02-28T08:25:49.289Z,99732.11
2019-02-28T08:28:23.793Z,99733.32
2019-02-28T08:30:57.133Z,99727.89
2019-02-28T08:33:30.511Z,99729.05
2019-02-28T08:36:08.425Z,99725.03
2019-02-28T08:38:39.241Z,99724.59
2019-02-28T08:41:12.725Z,99728.03
2019-02-28T08:43:47.822Z,99723.80
2019-02-28T08:46:20.790Z,99728.50
2019-02-28T08:48:53.842Z,99729.34
2019-02-28T08:51:27.759Z,99729.31
2019-02-28T08:54:02.687Z,99719.84
2019-02-28T08:56:35.734Z,99724.16
2019-02-28T08:59:12.031Z,99712.77
2019-02-28T09:01:44.911Z,99710.27
2019-02-28T09:04:18.427Z,99713.93
2019-02-28T09:06:52.111Z,99719.52
2019-02-28T09:09:25.528Z,99720.96
2019-02-28T09:11:58.904Z,99723.45
2019-02-28T09:14:33.038Z,99717.28
2019-02-28T09:17:06.085Z,99723.31
2019-02-28T09:19:39.519Z,99718.48
2019-02-28T09:22:13.258Z,99721.81
2019-02-28T09:24:47.413Z,99717.94
2019-02-28T09:27:20.822Z,99728.66
2019-02-28T09:29:54.880Z,99726.70
2019-02-28T09:32:29.331Z,99725.11
2019-02-28T09:35:06.382Z,99713.86
2019-02-28T09:37:37.990Z,99712.08
2019-02-28T09:40:11.797Z,99716.95
2019-02-28T09:42:47.851Z,99721.13
2019-02-28T09:45:21.360Z,99716.33
2019-02-28T09:47:54.784Z,99720.37
2019-02-28T09:50:28.163Z,99724.30
2019-02-28T09:53:02.097Z,99728.66
2019-02-28T09:55:35.567Z,99730.72
2019-02-28T09:58:08.806Z,99728.27
2019-02-28T10:00:43.258Z,99731.61
2019-02-28T10:03:18.674Z,99738.33
2019-02-28T10:05:52.210Z,99738.80
2019-02-28T10:08:24.811Z,99735.81
2019-02-28T10:10:58.170Z,99744.33
2019-02-28T10:13:31.329Z,99737.16
2019-02-28T10:16:04.888Z,99734.43
2019-02-28T10:18:38.888Z,99731.55
2019-02-28T10:21:12.944Z,99723.52
2019-02-28T10:23:46.348Z,99725.90
2019-02-28T10:26:20.336Z,99728.86
2019-02-28T10:28:54.231Z,99732.95
2019-02-28T10:31:36.143Z,99731.16
2019-02-28T10:34:02.886Z,99729.18
2019-02-28T10:36:36.479Z,99735.66
2019-02-28T10:39:10.146Z,99729.95
2019-02-28T10:41:43.162Z,99725.83
2019-02-28T10:44:16.187Z,99731.82
2019-02-28T10:46:50.343Z,99737.25
2019-02-28T10:49:24.926Z,99740.89
2019-02-28T10:51:58.414Z,99733.60
2019-02-28T10:54:31.529Z,99732.47
2019-02-28T10:57:05.937Z,99736.81
2019-02-28T10:59:39.908Z,99735.19
2019-02-28T11:02:18.945Z,99734.72
2019-02-28T11:04:51.959Z,99736.58
2019-02-28T11:07:25.466Z,99733.34
2019-02-28T11:10:00.325Z,99725.42
2019-02-28T11:12:34.188Z,99718.49
2019-02-28T11:15:07.318Z,99719.87
2019-02-28T11:17:40.439Z,99721.42
2019-02-28T11:20:21.836Z,99719.52
2019-02-28T11:22:48.221Z,99718.55
2019-02-28T11:25:22.455Z,99708.89
2019-02-28T11:27:55.995Z,99700.17
2019-02-28T11:30:29.734Z,99695.50
2019-02-28T11:33:04.841Z,99682.11
2019-02-28T11:35:39.160Z,99697.19
2019-02-28T11:38:11.622Z,99695.06
2019-02-28T11:40:44.723Z,99689.16
2019-02-28T11:43:18.214Z,99697.86
2019-02-28T11:45:51.871Z,99695.06
2019-02-28T11:48:25.118Z,99692.25
2019-02-28T11:50:59.675Z,99691.78
2019-02-28T11:53:32.291Z,99681.60
2019-02-28T11:56:06.426Z,99694.44
2019-02-28T11:58:40.405Z,99697.08
2019-02-28T12:01:14.245Z,99693.30
2019-02-28T12:03:47.248Z,99695.79
2019-02-28T12:06:22.448Z,99694.66
2019-02-28T12:08:55.964Z,99686.83
2019-02-28T12:11:29.771Z,99681.19
2019-02-28T12:14:02.860Z,99670.92
2019-02-28T12:16:36.800Z,99673.26
2019-02-28T12:19:12.439Z,99657.27
2019-02-28T12:21:46.917Z,99666.43
2019-02-28T12:24:20.410Z,99668.50
2019-02-28T12:26:54.036Z,99678.61
2019-02-28T12:29:27.151Z,99674.70
2019-02-28T12:32:01.136Z,99671.96
2019-02-28T12:34:35.025Z,99685.05
2019-02-28T12:37:08.057Z,99675.07
2019-02-28T12:39:45.121Z,99669.56
2019-02-28T12:42:19.315Z,99673.45
2019-02-28T12:44:56.018Z,99672.33
2019-02-28T12:47:34.922Z,99674.25
2019-02-28T12:50:09.204Z,99667.06
2019-02-28T12:52:49.933Z,99680.76
2019-02-28T12:55:39.079Z,99668.30
2019-02-28T12:58:13.637Z,99656.88
2019-02-28T13:00:46.954Z,99647.08
2019-02-28T13:03:23.092Z,99645.56
2019-02-28T13:05:56.897Z,99647.12
2019-02-28T13:08:30.460Z,99644.75
2019-02-28T13:11:04.702Z,99636.62
2019-02-28T13:13:39.303Z,99630.14
2019-02-28T13:16:12.486Z,99639.16
2019-02-28T13:18:46.163Z,99643.36
2019-02-28T13:21:19.152Z,99636.99
2019-02-28T13:23:52.544Z,99637.63
2019-02-28T13:26:25.702Z,99637.41
2019-02-28T13:28:59.137Z,99644.27
2019-02-28T13:31:35.358Z,99649.92
2019-02-28T13:34:07.581Z,99651.66
2019-02-28T13:36:41.676Z,99649.77
2019-02-28T13:39:15.127Z,99644.69
2019-02-28T13:41:48.305Z,99637.84
2019-02-28T13:44:21.999Z,99636.63
2019-02-28T13:46:54.996Z,99640.15
2019-02-28T13:49:28.884Z,99645.00
2019-02-28T13:52:02.711Z,99646.22
2019-02-28T13:54:38.100Z,99654.98
2019-02-28T13:57:10.854Z,99649.70
2019-02-28T13:59:44.653Z,99647.95
2019-02-28T14:02:19.544Z,99646.42
2019-02-28T14:04:52.593Z,99643.70
2019-02-28T14:07:29.943Z,99646.61
2019-02-28T14:10:01.589Z,99644.81
2019-02-28T14:12:37.186Z,99644.03
2019-02-28T14:15:15.487Z,99650.53
2019-02-28T14:17:47.372Z,99644.40
2019-02-28T14:20:20.465Z,99640.81
2019-02-28T14:22:53.249Z,99632.82
2019-02-28T14:25:27.147Z,99624.33
2019-02-28T14:28:00.526Z,99625.22
2019-02-28T14:30:35.053Z,99619.60
2019-02-28T14:33:07.728Z,99625.58
2019-02-28T14:35:41.649Z,99624.15
2019-02-28T14:38:14.682Z,99622.72
2019-02-28T14:40:49.697Z,99630.26
2019-02-28T14:43:22.245Z,99630.34
2019-02-28T14:45:56.045Z,99624.51
2019-02-28T14:48:28.892Z,99614.77
2019-02-28T14:51:01.969Z,99617.09
2019-02-28T14:53:34.925Z,99617.34
2019-02-28T14:56:08.466Z,99618.67
2019-02-28T14:58:42.317Z,99607.94
2019-02-28T15:01:17.739Z,99607.75
2019-02-28T15:03:49.965Z,99611.25
2019-02-28T15:06:26.439Z,99605.00
2019-02-28T15:08:59.402Z,99603.66
2019-02-28T15:11:32.601Z,99600.14
2019-02-28T15:14:08.701Z,99592.34
2019-02-28T15:16:41.505Z,99589.22
2019-02-28T15:19:16.357Z,99588.05
2019-02-28T15:21:49.913Z,99587.08
2019-02-28T15:24:23.397Z,99586.47
2019-02-28T15:26:59.067Z,99585.09
2019-02-28T15:29:33.068Z,99583.76
2019-02-28T15:32:06.463Z,99586.67
2019-02-28T15:34:41.074Z,99585.70
2019-02-28T15:37:14.960Z,99586.67
2019-02-28T15:39:49.768Z,99591.73
2019-02-28T15:42:23.964Z,99581.03
2019-02-28T15:44:56.995Z,99588.61
2019-02-28T15:47:32.558Z,99592.34
2019-02-28T15:50:06.735Z,99589.61
2019-02-28T15:52:40.769Z,99596.23
2019-02-28T15:55:14.046Z,99599.14
2019-02-28T15:57:47.657Z,99600.89
2019-02-28T16:00:23.116Z,99596.77
2019-02-28T16:02:58.639Z,99597.94
2019-02-28T16:05:33.266Z,99587.77
2019-02-28T16:08:10.309Z,99586.39
2019-02-28T16:10:52.841Z,99587.36
2019-02-28T16:13:17.874Z,99581.91
2019-02-28T16:15:51.378Z,99588.14
2019-02-28T16:18:24.897Z,99586.20
2019-02-28T16:20:58.642Z,99585.98
2019-02-28T16:23:31.751Z,99586.94
2019-02-28T16:26:05.220Z,99582.25
2019-02-28T16:28:42.768Z,99586.91
2019-02-28T16:31:18.961Z,99581.03
2019-02-28T16:33:52.441Z,99578.70
2019-02-28T16:36:26.611Z,99578.45
2019-02-28T16:38:59.981Z,99587.40
2019-02-28T16:41:33.666Z,99578.77
2019-02-28T16:44:08.140Z,99581.48
2019-02-28T16:46:41.642Z,99582.45
2019-02-28T16:49:14.677Z,99592.20
2019-02-28T16:51:50.789Z,99597.45
2019-02-28T16:54:27.160Z,99594.92
2019-02-28T16:57:00.416Z,99591.56
2019-02-28T16:59:36.642Z,99592.36
2019-02-28T17:02:11.242Z,99587.30
2019-02-28T17:04:48.711Z,99583.98
2019-02-28T17:07:21.437Z,99580.66
2019-02-28T17:09:55.172Z,99581.25
2019-02-28T17:12:50.432Z,99582.00
2019-02-28T17:15:31.624Z,99591.75
2019-02-28T17:18:09.668Z,99589.56
2019-02-28T17:20:42.727Z,99590.73
2019-02-28T17:23:18.647Z,99592.69
2019-02-28T17:25:53.572Z,99593.27
2019-02-28T17:28:37.367Z,99594.00
2019-02-28T17:31:21.816Z,99586.43
2019-02-28T17:34:26.460Z,99593.01
2019-02-28T17:36:59.842Z,99591.61
2019-02-28T17:39:33.357Z,99599.50
2019-02-28T17:42:08.830Z,99605.89
2019-02-28T17:45:01.745Z,99607.61
2019-02-28T17:48:19.166Z,99621.23
2019-02-28T17:51:22.165Z,99622.95
2019-02-28T17:54:37.528Z,99623.64
2019-02-28T17:57:17.831Z,99615.95
2019-02-28T18:00:32.657Z,99609.31
2019-02-28T18:03:33.607Z,99608.66
2019-02-28T18:06:48.112Z,99609.58
2019-02-28T18:09:48.087Z,99622.94
2019-02-28T18:12:49.921Z,99624.08
2019-02-28T18:15:37.064Z,99623.63
2019-02-28T18:18:34.587Z,99616.80
2019-02-28T18:21:57.591Z,99619.08
2019-02-28T18:25:02.118Z,99626.45
2019-02-28T18:28:04.899Z,99623.84
2019-02-28T21:43:39.631Z,99559.55
2019-02-28T21:46:14.783Z,99553.34
2019-02-28T21:48:48.391Z,99560.55
2019-02-28T21:51:22.387Z,99557.16
2019-02-28T21:53:55.508Z,99553.73
2019-02-28T21:56:29.112Z,99554.88
2019-02-28T21:59:03.687Z,99550.81
2019-02-28T22:01:37.122Z,99541.76
2019-02-28T22:04:09.840Z,99543.25
2019-02-28T22:06:42.497Z,99539.75
2019-02-28T22:09:15.616Z,99537.89
2019-02-28T22:11:49.439Z,99542.38
2019-02-28T22:14:23.069Z,99548.66
2019-02-28T22:16:56.978Z,99543.43
2019-02-28T22:19:30.048Z,99545.14
2019-02-28T22:22:03.478Z,99550.36
2019-02-28T22:24:36.810Z,99543.93
2019-02-28T22:27:09.540Z,99534.21
2019-02-28T22:29:42.635Z,99545.34
2019-02-28T22:32:24.444Z,99533.42
2019-02-28T22:35:13.880Z,99525.84
2019-02-28T22:37:46.998Z,99527.00
2019-02-28T22:40:20.502Z,99529.72
2019-02-28T22:42:53.154Z,99521.78
2019-02-28T22:45:26.663Z,99522.31
2019-02-28T22:48:01.999Z,99518.75
2019-02-28T22:50:35.010Z,99518.95
2019-02-28T22:53:08.393Z,99516.04
2019-02-28T22:55:41.853Z,99518.25
2019-02-28T22:58:14.875Z,99509.03
2019-02-28T23:01:08.368Z,99501.83
2019-02-28T23:03:42.292Z,99494.55
2019-02-28T23:06:15.340Z,99497.17
2019-02-28T23:08:48.596Z,99496.70
2019-02-28T23:11:22.514Z,99491.89
2019-02-28T23:13:56.354Z,99492.26
2019-02-28T23:16:29.049Z,99493.30
2019-02-28T23:19:02.222Z,99487.31
2019-02-28T23:21:35.723Z,99489.29
2019-02-28T23:24:09.580Z,99481.01
2019-02-28T23:27:20.050Z,99480.44
2019-02-28T23:30:12.152Z,99479.03
2019-02-28T23:32:53.826Z,99475.84
2019-02-28T23:35:47.397Z,99473.52
2019-02-28T23:38:20.902Z,99464.03
2019-02-28T23:40:56.124Z,99460.38
2019-02-28T23:43:28.778Z,99458.31
2019-02-28T23:46:02.318Z,99455.08
2019-02-28T23:48:36.061Z,99453.30
2019-02-28T23:51:09.338Z,99461.55
2019-02-28T23:53:42.827Z,99452.14
2019-02-28T23:56:16.725Z,99448.92
2019-02-28T23:58:49.602Z,99442.55
